Desoto, Texas
Current Conditions -  °F | °C
As of 1:53 PM on Sunday 23 Nov 2014 (Local Time) from KRBD Reporting Station
Clear Clear  
Wind Chill: 77°   Ceiling: Unl
Heat Index: 78°   Visibility: 10mi
Dew Point: 44°   Wind: 15mph
Humidity: 31%   Direction: 260°W
Pressure: 29.4"   Gusts: 21mph
Location:  32.59°N, 96.86°W
Report Text: KRBD 231953Z 26013G18KT 10SM CLR 25/07 A2940 RMK AO2 SLP949 T02500067
Loading
Personal Weather Stations






























Interactive Weather Map New forecast layout! Learn more

10-Day Weather Forecast

Advertisements
Track Severe Weather on mobile